createdAt,value
2019-03-27T00:00:07.873Z,5.90
2019-03-27T00:01:07.962Z,5.80
2019-03-27T00:02:08.053Z,5.90
2019-03-27T00:03:08.142Z,5.90
2019-03-27T00:04:08.232Z,5.70
2019-03-27T00:05:08.321Z,6.50
2019-03-27T00:06:08.410Z,5.40
2019-03-27T00:07:08.542Z,6.30
2019-03-27T00:08:08.582Z,5.50
2019-03-27T00:09:08.666Z,5.60
2019-03-27T00:10:08.760Z,5.60
2019-03-27T00:11:08.841Z,5.40
2019-03-27T00:12:08.933Z,5.90
2019-03-27T00:13:09.021Z,5.80
2019-03-27T00:14:09.109Z,6.70
2019-03-27T00:15:12.976Z,5.60
2019-03-27T00:16:09.290Z,5.90
2019-03-27T00:17:09.384Z,5.70
2019-03-27T00:18:09.486Z,5.90
2019-03-27T00:19:09.550Z,5.60
2019-03-27T00:20:09.641Z,5.90
2019-03-27T00:21:09.729Z,6.20
2019-03-27T00:22:09.819Z,6.60
2019-03-27T00:23:09.908Z,5.90
2019-03-27T00:24:09.998Z,6.40
2019-03-27T00:25:10.095Z,6.20
2019-03-27T00:26:10.178Z,6.40
2019-03-27T00:27:10.268Z,6.30
2019-03-27T00:28:10.360Z,6.90
2019-03-27T00:29:10.450Z,6.20
2019-03-27T00:30:10.542Z,5.90
2019-03-27T00:31:12.020Z,6.40
2019-03-27T00:32:10.708Z,6.50
2019-03-27T00:33:10.800Z,5.90
2019-03-27T00:34:10.891Z,5.80
2019-03-27T00:35:10.982Z,5.50
2019-03-27T00:36:11.073Z,5.60
2019-03-27T00:37:11.161Z,5.70
2019-03-27T00:38:11.252Z,5.90
2019-03-27T00:39:11.345Z,6.10
2019-03-27T00:40:11.429Z,5.40
2019-03-27T00:41:11.515Z,5.60
2019-03-27T00:42:11.602Z,5.70
2019-03-27T00:43:11.691Z,5.30
2019-03-27T00:44:11.780Z,5.80
2019-03-27T00:45:25.453Z,5.80
2019-03-27T00:46:11.962Z,5.60
2019-03-27T00:47:12.049Z,5.50
2019-03-27T00:48:12.138Z,5.90
2019-03-27T00:49:12.228Z,5.60
2019-03-27T00:50:12.322Z,5.40
2019-03-27T00:51:12.406Z,5.90
2019-03-27T00:52:12.496Z,5.50
2019-03-27T00:53:12.591Z,6.00
2019-03-27T00:54:12.695Z,5.60
2019-03-27T00:55:12.787Z,6.10
2019-03-27T00:56:12.875Z,5.40
2019-03-27T00:57:12.965Z,6.20
2019-03-27T00:58:13.058Z,6.40
2019-03-27T00:59:13.145Z,5.70
2019-03-27T01:00:13.235Z,6.00
2019-03-27T01:01:13.320Z,5.60
2019-03-27T01:02:13.407Z,5.40
2019-03-27T01:03:13.497Z,5.80
2019-03-27T01:04:13.585Z,5.70
2019-03-27T01:05:13.676Z,5.80
2019-03-27T01:06:13.767Z,5.60
2019-03-27T01:07:13.895Z,5.50
2019-03-27T01:08:13.938Z,5.20
2019-03-27T01:09:14.021Z,5.40
2019-03-27T01:10:14.113Z,5.90
2019-03-27T01:11:14.201Z,5.20
2019-03-27T01:12:14.291Z,5.20
2019-03-27T01:13:14.379Z,5.20
2019-03-27T01:14:14.474Z,5.70
2019-03-27T01:15:14.563Z,5.50
2019-03-27T01:16:14.652Z,5.50
2019-03-27T01:17:14.743Z,5.30
2019-03-27T01:18:14.833Z,4.90
2019-03-27T01:19:14.919Z,5.70
2019-03-27T01:20:15.012Z,5.50
2019-03-27T01:21:15.099Z,5.60
2019-03-27T01:22:15.189Z,5.60
2019-03-27T01:23:15.279Z,5.20
2019-03-27T01:24:15.369Z,5.30
2019-03-27T01:25:15.453Z,5.30
2019-03-27T01:26:15.548Z,5.30
2019-03-27T01:27:15.636Z,5.70
2019-03-27T01:28:15.726Z,5.40
2019-03-27T01:29:15.815Z,5.50
2019-03-27T01:30:15.908Z,4.70
2019-03-27T01:31:15.993Z,5.00
2019-03-27T01:32:16.086Z,4.90
2019-03-27T01:33:16.174Z,4.80
2019-03-27T01:34:16.265Z,5.30
2019-03-27T01:35:16.353Z,5.10
2019-03-27T01:36:16.438Z,5.10
2019-03-27T01:37:16.541Z,5.00
2019-03-27T01:38:16.628Z,4.80
2019-03-27T01:39:16.719Z,5.40
2019-03-27T01:40:16.808Z,5.50
2019-03-27T01:41:16.898Z,5.10
2019-03-27T01:42:17.017Z,5.30
2019-03-27T01:43:17.111Z,5.40
2019-03-27T01:44:17.195Z,5.40
2019-03-27T01:45:17.332Z,5.30
2019-03-27T01:46:17.369Z,5.20
2019-03-27T01:47:17.458Z,5.70
2019-03-27T01:48:17.547Z,5.30
2019-03-27T01:49:17.636Z,5.00
2019-03-27T01:50:17.724Z,5.70
2019-03-27T01:51:17.812Z,5.50
2019-03-27T01:52:17.896Z,5.60
2019-03-27T01:53:17.995Z,5.70
2019-03-27T01:54:18.082Z,5.90
2019-03-27T01:55:18.167Z,5.80
2019-03-27T01:56:18.255Z,6.20
2019-03-27T01:57:18.355Z,5.30
2019-03-27T01:58:18.444Z,6.00
2019-03-27T01:59:18.552Z,5.60
2019-03-27T02:00:18.623Z,5.30
2019-03-27T02:01:18.714Z,5.40
2019-03-27T02:02:18.804Z,5.60
2019-03-27T02:03:18.896Z,5.80
2019-03-27T02:04:18.982Z,5.60
2019-03-27T02:05:19.077Z,5.80
2019-03-27T02:06:19.165Z,5.90
2019-03-27T02:07:19.256Z,6.10
2019-03-27T02:08:19.346Z,5.70
2019-03-27T02:09:19.436Z,5.60
2019-03-27T02:10:19.530Z,5.80
2019-03-27T02:11:19.620Z,5.50
2019-03-27T02:12:19.705Z,5.70
2019-03-27T02:13:19.796Z,5.90
2019-03-27T02:14:19.886Z,5.70
2019-03-27T02:15:19.972Z,5.60
2019-03-27T02:16:20.061Z,5.90
2019-03-27T02:17:20.153Z,6.80
2019-03-27T02:18:20.242Z,6.20
2019-03-27T02:19:20.331Z,5.90
2019-03-27T02:20:20.416Z,6.00
2019-03-27T02:21:20.516Z,5.90
2019-03-27T02:22:20.621Z,5.50
2019-03-27T02:23:20.714Z,6.00
2019-03-27T02:24:20.802Z,5.50
2019-03-27T02:25:20.900Z,6.10
2019-03-27T02:26:20.991Z,5.80
2019-03-27T02:27:21.078Z,5.90
2019-03-27T02:28:21.171Z,5.70
2019-03-27T02:29:21.259Z,5.70
2019-03-27T02:30:21.360Z,5.90
2019-03-27T02:31:21.464Z,6.20
2019-03-27T02:32:21.536Z,5.80
2019-03-27T02:33:21.625Z,5.80
2019-03-27T02:34:21.711Z,6.20
2019-03-27T02:35:21.802Z,6.00
2019-03-27T02:36:21.892Z,5.60
2019-03-27T02:37:21.985Z,6.20
2019-03-27T02:38:22.074Z,6.70
2019-03-27T02:39:22.153Z,6.70
2019-03-27T02:40:22.256Z,6.30
2019-03-27T02:41:22.354Z,6.50
2019-03-27T02:42:22.437Z,6.40
2019-03-27T02:43:22.531Z,6.80
2019-03-27T02:44:22.611Z,6.20
2019-03-27T02:45:22.727Z,6.20
2019-03-27T02:46:24.904Z,7.00
2019-03-27T02:47:22.913Z,7.10
2019-03-27T02:48:22.998Z,6.50
2019-03-27T02:49:23.086Z,6.30
2019-03-27T02:50:23.172Z,6.60
2019-03-27T02:51:23.264Z,6.80
2019-03-27T02:52:23.356Z,6.60
2019-03-27T02:53:23.439Z,6.60
2019-03-27T02:54:23.519Z,6.70
2019-03-27T02:55:23.613Z,6.80
2019-03-27T02:56:23.705Z,6.50
2019-03-27T02:57:23.790Z,6.00
2019-03-27T02:58:23.879Z,6.50
2019-03-27T02:59:23.970Z,6.40
2019-03-27T03:00:24.054Z,7.00
2019-03-27T03:01:24.142Z,7.10
2019-03-27T03:02:24.246Z,6.60
2019-03-27T03:03:24.323Z,6.80
2019-03-27T03:04:24.413Z,6.70
2019-03-27T03:05:24.500Z,7.00
2019-03-27T03:06:24.576Z,6.60
2019-03-27T03:09:07.192Z,6.90
2019-03-27T03:10:07.279Z,6.50
2019-03-27T03:11:07.374Z,6.80
2019-03-27T03:12:07.460Z,6.50
2019-03-27T03:13:07.548Z,6.70
2019-03-27T03:14:07.637Z,6.70
2019-03-27T03:15:07.719Z,7.00
2019-03-27T03:16:07.805Z,6.80
2019-03-27T03:17:07.894Z,7.00
2019-03-27T03:18:07.983Z,7.20
2019-03-27T03:19:08.070Z,7.40
2019-03-27T03:20:08.158Z,7.80
2019-03-27T03:21:08.247Z,7.50
2019-03-27T03:22:08.339Z,6.50
2019-03-27T03:23:08.419Z,6.80
2019-03-27T03:24:08.536Z,7.20
2019-03-27T03:25:08.657Z,7.50
2019-03-27T03:26:08.734Z,7.60
2019-03-27T03:27:08.823Z,7.10
2019-03-27T03:28:08.913Z,7.60
2019-03-27T03:29:09.005Z,7.20
2019-03-27T03:30:09.089Z,7.40
2019-03-27T03:31:09.181Z,7.40
2019-03-27T03:32:09.281Z,7.40
2019-03-27T03:33:09.354Z,7.60
2019-03-27T03:34:09.481Z,7.70
2019-03-27T03:35:09.606Z,7.40
2019-03-27T03:36:09.678Z,8.30
2019-03-27T03:37:09.768Z,7.40
2019-03-27T03:38:09.859Z,7.90
2019-03-27T03:39:09.947Z,7.60
2019-03-27T03:40:10.037Z,8.30
2019-03-27T03:41:10.128Z,8.00
2019-03-27T03:42:10.217Z,7.50
2019-03-27T03:43:10.309Z,7.80
2019-03-27T03:44:10.395Z,7.40
2019-03-27T03:45:10.489Z,7.40
2019-03-27T03:46:10.564Z,7.90
2019-03-27T03:47:10.650Z,8.50
2019-03-27T03:48:10.737Z,7.60
2019-03-27T03:49:10.827Z,8.10
2019-03-27T03:50:10.916Z,8.10
2019-03-27T03:51:11.009Z,8.00
2019-03-27T03:52:11.094Z,7.50
2019-03-27T03:53:11.183Z,8.30
2019-03-27T03:54:11.269Z,8.00
2019-03-27T03:55:11.356Z,7.80
2019-03-27T03:56:11.444Z,8.30
2019-03-27T03:57:11.557Z,7.60
2019-03-27T03:58:11.617Z,8.20
2019-03-27T03:59:11.699Z,7.90
2019-03-27T04:00:11.798Z,8.20
2019-03-27T04:01:11.889Z,8.10
2019-03-27T04:02:11.981Z,7.90
2019-03-27T04:03:12.069Z,8.60
2019-03-27T04:04:12.155Z,8.00
2019-03-27T04:05:12.259Z,8.80
2019-03-27T04:06:12.333Z,8.50
2019-03-27T04:07:12.425Z,8.70
2019-03-27T04:08:12.536Z,8.40
2019-03-27T04:09:12.623Z,8.70
2019-03-27T04:10:12.688Z,8.30
2019-03-27T04:11:12.784Z,8.80
2019-03-27T04:12:12.872Z,8.50
2019-03-27T04:13:12.961Z,7.90
2019-03-27T04:14:13.049Z,8.50
2019-03-27T04:15:13.138Z,9.20
2019-03-27T04:16:13.228Z,9.00
2019-03-27T04:17:17.382Z,8.80
2019-03-27T04:18:13.408Z,8.00
2019-03-27T04:19:13.497Z,9.30
2019-03-27T04:20:13.595Z,8.60
2019-03-27T04:21:13.647Z,9.20
2019-03-27T04:22:13.741Z,8.70
2019-03-27T04:23:13.825Z,8.40
2019-03-27T04:24:13.916Z,8.60
2019-03-27T04:25:14.011Z,8.50
2019-03-27T04:26:14.093Z,9.10
2019-03-27T04:27:14.181Z,9.10
2019-03-27T04:28:14.271Z,8.70
2019-03-27T04:29:14.398Z,8.80
2019-03-27T04:30:14.503Z,9.30
2019-03-27T04:31:14.534Z,9.00
2019-03-27T04:32:14.623Z,8.90
2019-03-27T04:33:14.739Z,8.60
2019-03-27T04:34:14.801Z,8.50
2019-03-27T04:35:14.887Z,8.80
2019-03-27T04:36:14.976Z,8.60
2019-03-27T04:37:15.069Z,8.60
2019-03-27T04:38:15.156Z,8.90
2019-03-27T04:39:15.244Z,8.80
2019-03-27T04:40:15.336Z,9.10
2019-03-27T04:41:15.462Z,9.30
2019-03-27T04:42:15.522Z,9.40
2019-03-27T04:43:15.598Z,8.60
2019-03-27T04:45:58.215Z,9.50
2019-03-27T04:46:58.343Z,8.50
2019-03-27T04:47:58.400Z,9.70
2019-03-27T04:48:58.484Z,9.60
2019-03-27T04:49:58.575Z,9.40
2019-03-27T04:50:58.652Z,9.30
2019-03-27T04:51:58.749Z,8.90
2019-03-27T04:52:58.838Z,9.70
2019-03-27T04:53:58.925Z,9.40
2019-03-27T04:54:59.012Z,9.20
2019-03-27T04:55:59.100Z,10.00
2019-03-27T04:56:59.187Z,9.80
2019-03-27T04:57:59.277Z,9.80
2019-03-27T04:58:59.373Z,9.30
2019-03-27T04:59:59.462Z,9.90
2019-03-27T05:00:59.547Z,10.10
2019-03-27T05:01:59.632Z,10.10
2019-03-27T05:02:59.724Z,10.10
2019-03-27T05:03:59.814Z,9.40
2019-03-27T05:04:59.901Z,9.60
2019-03-27T05:05:59.997Z,9.80
2019-03-27T05:07:00.081Z,9.70
2019-03-27T05:08:00.172Z,9.30
2019-03-27T05:09:00.256Z,9.70
2019-03-27T05:10:00.366Z,9.80
2019-03-27T05:11:00.434Z,9.70
2019-03-27T05:12:00.558Z,9.70
2019-03-27T05:13:00.625Z,9.60
2019-03-27T05:14:00.700Z,9.80
2019-03-27T05:15:00.788Z,9.80
2019-03-27T05:16:00.878Z,9.60
2019-03-27T05:17:00.967Z,10.20
2019-03-27T05:18:01.055Z,9.50
2019-03-27T05:19:01.144Z,10.00
2019-03-27T05:20:01.233Z,10.00
2019-03-27T05:21:01.319Z,9.90
2019-03-27T05:22:01.405Z,10.60
2019-03-27T05:23:01.503Z,10.30
2019-03-27T05:24:01.579Z,10.20
2019-03-27T05:25:01.665Z,9.90
2019-03-27T05:26:01.751Z,10.30
2019-03-27T05:27:01.839Z,10.00
2019-03-27T05:28:01.934Z,10.20
2019-03-27T05:29:02.019Z,9.60
2019-03-27T05:30:02.124Z,10.10
2019-03-27T05:31:02.214Z,9.50
2019-03-27T05:32:02.304Z,9.40
2019-03-27T05:33:02.392Z,9.80
2019-03-27T05:34:02.482Z,9.60
2019-03-27T05:35:02.566Z,9.80
2019-03-27T05:36:02.689Z,9.60
2019-03-27T05:37:02.756Z,8.90
2019-03-27T05:38:02.849Z,9.40
2019-03-27T05:39:02.936Z,9.50
2019-03-27T05:40:03.030Z,10.10
2019-03-27T05:41:03.115Z,9.30
2019-03-27T05:42:03.204Z,9.30
2019-03-27T05:43:03.291Z,9.60
2019-03-27T05:44:03.385Z,9.40
2019-03-27T05:45:03.475Z,10.10
2019-03-27T05:46:03.578Z,9.50
2019-03-27T05:47:03.662Z,9.50
2019-03-27T05:48:03.744Z,9.60
2019-03-27T05:49:03.835Z,9.70
2019-03-27T05:50:03.923Z,9.80
2019-03-27T05:51:04.020Z,10.50
2019-03-27T05:52:04.106Z,10.20
2019-03-27T05:53:04.191Z,9.70
2019-03-27T05:54:04.276Z,9.00
2019-03-27T05:55:04.378Z,8.60
2019-03-27T05:56:04.464Z,9.60
2019-03-27T05:57:04.592Z,8.80
2019-03-27T05:58:04.681Z,9.10
2019-03-27T05:59:04.761Z,9.80
2019-03-27T06:00:04.854Z,8.90
2019-03-27T06:01:04.938Z,9.50
2019-03-27T06:02:05.029Z,10.00
2019-03-27T06:03:05.116Z,8.90
2019-03-27T06:04:05.196Z,9.20
2019-03-27T06:05:05.285Z,9.30
2019-03-27T06:06:05.410Z,9.20
2019-03-27T06:07:05.461Z,9.60
2019-03-27T06:08:05.536Z,9.00
2019-03-27T06:09:05.678Z,9.50
2019-03-27T06:10:05.765Z,9.40
2019-03-27T06:11:05.854Z,9.30
2019-03-27T06:12:05.944Z,9.00
2019-03-27T06:13:06.033Z,9.20
2019-03-27T06:14:06.121Z,9.20
2019-03-27T06:15:06.210Z,9.60
2019-03-27T06:16:06.301Z,9.20
2019-03-27T06:17:06.393Z,8.90
2019-03-27T06:18:13.011Z,8.70
2019-03-27T06:19:06.599Z,10.00
2019-03-27T06:20:06.759Z,10.00
2019-03-27T06:21:06.779Z,9.90
2019-03-27T06:22:06.861Z,9.90
2019-03-27T06:23:06.949Z,9.40
2019-03-27T06:24:07.040Z,9.80
2019-03-27T06:25:07.130Z,8.90
2019-03-27T06:26:07.222Z,9.40
2019-03-27T06:27:07.303Z,10.20
2019-03-27T06:28:07.391Z,8.80
2019-03-27T06:29:07.494Z,9.10
2019-03-27T06:30:07.576Z,9.80
2019-03-27T06:31:07.665Z,10.50
2019-03-27T06:32:07.753Z,10.30
2019-03-27T06:33:07.842Z,9.60
2019-03-27T06:34:07.931Z,9.70
2019-03-27T06:35:08.020Z,9.50
2019-03-27T06:36:08.111Z,10.00
2019-03-27T06:37:08.197Z,10.20
2019-03-27T06:38:08.307Z,10.20
2019-03-27T06:39:08.401Z,10.10
2019-03-27T06:40:08.482Z,10.00
2019-03-27T06:41:08.585Z,10.20
2019-03-27T06:42:08.675Z,10.60
2019-03-27T06:43:08.782Z,10.40
2019-03-27T06:44:08.840Z,10.00
2019-03-27T06:45:08.929Z,10.20
2019-03-27T06:46:09.019Z,10.20
2019-03-27T06:47:09.094Z,10.10
2019-03-27T06:48:09.203Z,10.00
2019-03-27T06:49:09.289Z,10.60
2019-03-27T06:50:09.376Z,9.70
2019-03-27T06:51:09.481Z,9.80
2019-03-27T06:52:09.589Z,10.10
2019-03-27T06:53:09.669Z,10.10
2019-03-27T06:54:09.755Z,10.50
2019-03-27T06:55:09.842Z,9.90
2019-03-27T06:56:09.931Z,9.80
2019-03-27T06:57:10.024Z,10.40
2019-03-27T06:58:10.113Z,10.20
2019-03-27T06:59:10.200Z,10.40
2019-03-27T07:00:10.298Z,9.90
2019-03-27T07:01:10.377Z,9.00
2019-03-27T07:02:10.469Z,9.50
2019-03-27T07:03:10.549Z,10.00
2019-03-27T07:04:11.094Z,9.90
2019-03-27T07:05:10.756Z,9.60
2019-03-27T07:06:10.801Z,9.80
2019-03-27T07:07:10.896Z,10.60
2019-03-27T07:08:10.981Z,9.80
2019-03-27T07:09:11.070Z,9.70
2019-03-27T07:10:11.161Z,9.20
2019-03-27T07:11:11.254Z,9.30
2019-03-27T07:12:21.128Z,9.10
2019-03-27T07:13:11.459Z,9.40
2019-03-27T07:14:11.513Z,9.30
2019-03-27T07:15:11.604Z,10.10
2019-03-27T07:16:11.690Z,9.80
2019-03-27T07:17:11.779Z,9.80
2019-03-27T07:18:11.879Z,10.00
2019-03-27T07:19:11.959Z,9.70
2019-03-27T07:20:12.049Z,9.50
2019-03-27T07:21:12.139Z,9.90
2019-03-27T07:22:12.231Z,9.90
2019-03-27T07:23:12.321Z,10.30
2019-03-27T07:24:12.412Z,9.80
2019-03-27T07:25:12.506Z,9.60
2019-03-27T07:26:12.577Z,10.30
2019-03-27T07:27:12.675Z,10.50
2019-03-27T07:28:12.762Z,9.90
2019-03-27T07:29:12.852Z,10.70
2019-03-27T07:30:12.944Z,10.10
2019-03-27T07:31:13.033Z,10.10
2019-03-27T07:32:13.122Z,10.50
2019-03-27T07:33:13.225Z,10.00
2019-03-27T07:34:13.302Z,10.60
2019-03-27T07:35:13.395Z,10.90
2019-03-27T07:36:13.488Z,10.70
2019-03-27T07:37:13.601Z,10.60
2019-03-27T07:38:13.712Z,10.80
2019-03-27T07:39:13.796Z,10.90
2019-03-27T07:40:13.887Z,10.60
2019-03-27T07:41:13.975Z,10.80
2019-03-27T07:42:14.074Z,9.80
2019-03-27T07:43:14.164Z,10.20
2019-03-27T07:44:14.251Z,10.50
2019-03-27T07:45:14.345Z,9.40
2019-03-27T07:46:14.437Z,10.50
2019-03-27T07:47:14.524Z,10.50
2019-03-27T07:48:14.620Z,10.00
2019-03-27T07:49:14.720Z,10.60
2019-03-27T07:50:14.795Z,10.70
2019-03-27T07:51:14.883Z,10.10
2019-03-27T07:52:14.972Z,10.30
2019-03-27T07:53:15.071Z,10.70
2019-03-27T07:54:15.151Z,12.00
2019-03-27T07:55:19.750Z,10.80
2019-03-27T07:56:15.340Z,9.90
2019-03-27T07:57:15.503Z,10.20
2019-03-27T07:58:15.612Z,10.90
2019-03-27T07:59:15.644Z,10.30
2019-03-27T08:00:15.734Z,10.60
2019-03-27T08:01:15.822Z,11.30
2019-03-27T08:02:15.912Z,11.10
2019-03-27T08:03:16.000Z,10.60
2019-03-27T08:04:16.092Z,10.30
2019-03-27T08:05:16.184Z,10.80
2019-03-27T08:06:16.269Z,11.00
2019-03-27T08:07:26.294Z,10.20
2019-03-27T08:08:16.445Z,10.10
2019-03-27T08:09:16.530Z,10.60
2019-03-27T08:10:16.624Z,10.70
2019-03-27T08:11:16.749Z,10.80
2019-03-27T08:12:16.813Z,10.00
2019-03-27T08:13:16.897Z,10.30
2019-03-27T08:14:16.991Z,10.40
2019-03-27T08:15:17.078Z,11.40
2019-03-27T08:16:17.174Z,10.70
2019-03-27T08:17:17.263Z,10.20
2019-03-27T08:18:17.351Z,10.80
2019-03-27T08:19:17.444Z,10.60
2019-03-27T08:20:17.551Z,10.80
2019-03-27T08:21:17.636Z,10.20
2019-03-27T08:22:17.721Z,10.50
2019-03-27T08:23:17.830Z,10.10
2019-03-27T08:24:17.899Z,11.30
2019-03-27T08:25:18.082Z,10.70
2019-03-27T08:26:18.080Z,11.10
2019-03-27T08:27:18.171Z,10.60
2019-03-27T08:28:18.262Z,10.00
2019-03-27T08:29:18.352Z,10.20
2019-03-27T08:30:18.440Z,11.00
2019-03-27T08:31:18.527Z,11.10
2019-03-27T08:32:18.607Z,11.00
2019-03-27T08:33:18.714Z,10.60
2019-03-27T08:34:18.797Z,11.30
2019-03-27T08:35:18.885Z,10.20
2019-03-27T08:36:18.976Z,10.50
2019-03-27T08:37:19.066Z,10.60
2019-03-27T08:38:19.160Z,10.30
2019-03-27T08:39:19.248Z,9.90
2019-03-27T08:40:19.336Z,10.30
2019-03-27T08:41:19.437Z,10.90
2019-03-27T08:42:19.517Z,10.50
2019-03-27T08:43:21.897Z,10.60
2019-03-27T08:44:19.697Z,10.90
2019-03-27T08:45:19.817Z,10.00
2019-03-27T08:46:19.891Z,10.50
2019-03-27T08:47:19.982Z,9.80
2019-03-27T08:48:20.074Z,10.10
2019-03-27T08:49:22.114Z,10.30
2019-03-27T08:50:20.256Z,10.80
2019-03-27T08:51:20.345Z,10.20
2019-03-27T08:52:20.430Z,10.80
2019-03-27T08:53:20.516Z,10.20
2019-03-27T08:54:20.716Z,9.90
2019-03-27T08:55:20.723Z,10.20
2019-03-27T08:56:20.901Z,9.70
2019-03-27T08:57:20.891Z,10.20
2019-03-27T08:58:20.983Z,10.00
2019-03-27T08:59:21.074Z,10.20
2019-03-27T09:00:21.496Z,9.80
2019-03-27T09:01:21.256Z,10.30
2019-03-27T09:02:21.346Z,11.70
2019-03-27T09:03:21.437Z,11.10
2019-03-27T09:04:21.540Z,11.40
2019-03-27T09:05:21.620Z,10.20
2019-03-27T09:06:33.003Z,10.60
2019-03-27T09:07:21.800Z,10.50
2019-03-27T09:08:21.895Z,11.50
2019-03-27T09:09:21.989Z,10.60
2019-03-27T09:10:22.080Z,10.90
2019-03-27T09:11:22.188Z,10.50
2019-03-27T09:12:22.252Z,10.10
2019-03-27T09:13:22.341Z,10.60
2019-03-27T09:14:22.433Z,10.00
2019-03-27T09:15:22.552Z,10.30
2019-03-27T09:16:22.616Z,10.40
2019-03-27T09:17:22.704Z,10.60
2019-03-27T09:18:22.796Z,9.60
2019-03-27T09:19:35.125Z,10.60
2019-03-27T09:20:22.976Z,9.40
2019-03-27T09:21:23.070Z,9.50
2019-03-27T09:22:23.160Z,10.20
2019-03-27T09:23:23.260Z,9.80
2019-03-27T09:24:23.351Z,10.20
2019-03-27T09:25:23.457Z,10.50
2019-03-27T09:26:23.530Z,9.30
2019-03-27T09:27:23.621Z,10.00
2019-03-27T09:28:23.716Z,10.20
2019-03-27T09:29:23.806Z,9.20
2019-03-27T09:30:23.893Z,10.20
2019-03-27T09:31:23.983Z,9.40
2019-03-27T09:32:24.075Z,9.80
2019-03-27T09:33:24.169Z,7.80
2019-03-27T09:34:24.261Z,8.20
2019-03-27T09:35:24.353Z,8.10
2019-03-27T09:36:24.445Z,7.70
2019-03-27T09:37:24.540Z,7.00
2019-03-27T09:38:24.636Z,6.20
2019-03-27T09:39:24.727Z,6.10
2019-03-27T09:40:24.818Z,5.40
2019-03-27T09:41:24.911Z,5.90
2019-03-27T09:42:25.003Z,5.30
2019-03-27T09:43:25.099Z,5.90
2019-03-27T09:44:25.188Z,6.30
2019-03-27T09:45:25.284Z,6.30
2019-03-27T09:46:25.377Z,6.10
2019-03-27T09:47:25.482Z,6.40
2019-03-27T09:48:25.605Z,5.60
2019-03-27T09:49:25.666Z,5.50
2019-03-27T09:50:25.754Z,4.80
2019-03-27T09:51:25.844Z,4.80
2019-03-27T09:52:25.937Z,4.90
2019-03-27T09:53:26.041Z,4.50
2019-03-27T09:54:26.129Z,4.50
2019-03-27T09:55:26.227Z,4.80
2019-03-27T09:56:26.318Z,4.60
2019-03-27T09:57:26.410Z,4.70
2019-03-27T09:58:26.504Z,5.00
2019-03-27T09:59:26.579Z,4.10
2019-03-27T10:00:26.698Z,3.90
2019-03-27T10:01:26.779Z,4.10
2019-03-27T10:02:26.875Z,4.10
2019-03-27T10:03:26.966Z,3.60
2019-03-27T10:04:27.062Z,3.80
2019-03-27T10:05:27.152Z,4.20
2019-03-27T10:06:27.248Z,3.80
2019-03-27T10:07:27.342Z,3.90
2019-03-27T10:08:27.443Z,3.80
2019-03-27T10:09:27.535Z,3.90
2019-03-27T10:10:27.614Z,4.10
2019-03-27T10:11:27.716Z,4.90
2019-03-27T10:12:27.807Z,4.40
2019-03-27T10:13:27.900Z,4.50
2019-03-27T10:14:27.992Z,4.50
2019-03-27T10:15:28.088Z,4.40
2019-03-27T10:16:28.171Z,3.60
2019-03-27T10:17:28.264Z,3.40
2019-03-27T10:18:28.360Z,3.60
2019-03-27T10:19:28.451Z,3.00
2019-03-27T10:20:28.546Z,3.40
2019-03-27T10:21:28.645Z,3.30
2019-03-27T10:22:28.757Z,3.40
2019-03-27T10:23:28.909Z,3.20
2019-03-27T10:24:28.888Z,3.50
2019-03-27T10:25:28.960Z,3.30
2019-03-27T10:26:29.055Z,3.50
2019-03-27T10:27:29.145Z,3.80
2019-03-27T10:28:29.241Z,3.40
2019-03-27T10:29:29.335Z,3.00
2019-03-27T10:30:29.451Z,3.40
2019-03-27T10:31:29.519Z,3.40
2019-03-27T10:32:29.597Z,3.10
2019-03-27T10:33:29.683Z,3.70
2019-03-27T10:34:29.779Z,3.40
2019-03-27T10:35:29.874Z,3.40
2019-03-27T10:36:29.958Z,3.40
2019-03-27T10:37:30.050Z,3.50
2019-03-27T10:38:30.145Z,3.20
2019-03-27T10:39:30.236Z,3.20
2019-03-27T10:40:30.325Z,3.40
2019-03-27T10:41:30.418Z,3.50
2019-03-27T10:42:30.513Z,3.80
2019-03-27T10:43:30.607Z,3.90
2019-03-27T10:44:30.908Z,4.00
2019-03-27T10:45:30.906Z,3.70
2019-03-27T10:46:30.907Z,3.40
2019-03-27T10:47:31.005Z,3.00
2019-03-27T10:48:31.100Z,2.90
2019-03-27T10:49:34.243Z,3.00
2019-03-27T10:50:31.286Z,3.40
2019-03-27T10:51:31.383Z,3.40
2019-03-27T10:52:31.479Z,3.00
2019-03-27T10:53:31.575Z,3.00
2019-03-27T10:54:31.665Z,2.90
2019-03-27T10:55:34.534Z,2.70
2019-03-27T10:56:31.853Z,3.10
2019-03-27T10:57:31.949Z,2.90
2019-03-27T10:58:32.044Z,2.80
2019-03-27T10:59:32.139Z,3.00
2019-03-27T11:00:32.231Z,3.10
2019-03-27T11:01:32.336Z,3.30
2019-03-27T11:02:32.419Z,2.90
2019-03-27T11:03:32.513Z,2.60
2019-03-27T11:04:32.608Z,2.90
2019-03-27T11:05:32.737Z,2.90
2019-03-27T11:06:32.783Z,2.80
2019-03-27T11:07:32.893Z,2.50
2019-03-27T11:08:32.989Z,2.90
2019-03-27T11:09:33.085Z,3.20
2019-03-27T11:10:33.181Z,3.10
2019-03-27T11:11:33.276Z,2.80
2019-03-27T11:12:33.368Z,2.40
2019-03-27T11:13:34.516Z,2.60
2019-03-27T11:14:38.191Z,2.60
2019-03-27T11:15:33.668Z,2.30
2019-03-27T11:16:33.766Z,2.20
2019-03-27T11:17:33.864Z,2.30
2019-03-27T11:18:33.960Z,2.30
2019-03-27T11:19:34.055Z,2.10
2019-03-27T11:20:34.149Z,2.30
2019-03-27T11:21:34.243Z,2.00
2019-03-27T11:22:34.338Z,2.10
2019-03-27T11:23:34.433Z,2.20
2019-03-27T11:24:34.530Z,1.90
2019-03-27T11:25:34.628Z,2.40
2019-03-27T11:26:34.708Z,1.90
2019-03-27T11:27:34.834Z,1.70
2019-03-27T11:28:34.887Z,2.00
2019-03-27T11:29:34.983Z,1.80
2019-03-27T11:30:35.077Z,1.90
2019-03-27T11:31:35.171Z,1.90
2019-03-27T11:32:35.269Z,2.20
2019-03-27T11:33:35.360Z,2.00
2019-03-27T11:34:35.480Z,2.00
2019-03-27T11:35:35.541Z,2.30
2019-03-27T11:36:35.630Z,2.00
2019-03-27T11:37:35.723Z,1.80
2019-03-27T11:38:37.465Z,2.40
2019-03-27T11:39:35.911Z,1.70
2019-03-27T11:40:36.007Z,1.80
2019-03-27T11:41:36.099Z,1.90
2019-03-27T11:42:36.199Z,1.60
2019-03-27T11:43:36.286Z,2.00
2019-03-27T11:44:36.381Z,1.90
2019-03-27T11:45:36.468Z,1.80
2019-03-27T11:46:36.556Z,2.20
2019-03-27T11:47:36.748Z,2.40
2019-03-27T11:48:36.764Z,2.00
2019-03-27T11:49:36.836Z,2.30
2019-03-27T11:50:44.924Z,2.00
2019-03-27T11:51:37.034Z,1.90
2019-03-27T11:52:37.127Z,2.00
2019-03-27T11:53:37.224Z,1.80
2019-03-27T11:54:37.315Z,1.80
2019-03-27T11:55:37.417Z,1.80
2019-03-27T11:56:37.521Z,2.10
2019-03-27T11:57:37.611Z,1.60
2019-03-27T11:58:37.666Z,1.70
2019-03-27T11:59:37.762Z,1.70
2019-03-27T12:00:37.862Z,1.70
2019-03-27T12:01:42.090Z,1.90
2019-03-27T12:02:38.044Z,1.90
2019-03-27T12:03:38.139Z,1.80
2019-03-27T12:04:38.255Z,1.80
2019-03-27T12:05:38.346Z,1.70
2019-03-27T12:06:38.440Z,1.80
2019-03-27T12:07:38.533Z,1.70
2019-03-27T12:08:38.631Z,1.90
2019-03-27T12:09:38.728Z,1.70
2019-03-27T12:10:38.820Z,2.10
2019-03-27T12:11:38.917Z,1.80
2019-03-27T12:12:39.010Z,2.00
2019-03-27T12:13:39.104Z,1.80
2019-03-27T12:14:39.199Z,2.30
2019-03-27T12:15:39.296Z,1.90
2019-03-27T12:16:39.387Z,1.80
2019-03-27T12:17:39.503Z,1.70
2019-03-27T12:18:39.575Z,2.40
2019-03-27T12:19:39.666Z,1.80
2019-03-27T12:20:39.758Z,1.60
2019-03-27T12:21:39.851Z,1.70
2019-03-27T12:22:39.945Z,1.80
2019-03-27T12:23:40.082Z,1.80
2019-03-27T12:24:40.146Z,2.20
2019-03-27T12:25:40.242Z,2.10
2019-03-27T12:26:40.335Z,1.80
2019-03-27T12:27:40.426Z,1.90
2019-03-27T12:28:40.519Z,1.60
2019-03-27T12:29:40.662Z,1.70
2019-03-27T12:30:40.799Z,1.70
2019-03-27T12:31:40.851Z,1.80
2019-03-27T12:32:40.946Z,1.80
2019-03-27T12:33:41.037Z,1.90
2019-03-27T12:34:41.152Z,1.80
2019-03-27T12:35:41.259Z,2.10
2019-03-27T12:36:41.343Z,1.90
2019-03-27T12:37:41.469Z,2.10
2019-03-27T12:38:41.544Z,2.20
2019-03-27T12:39:41.649Z,1.80
2019-03-27T12:40:41.742Z,2.10
2019-03-27T12:41:41.837Z,1.70
2019-03-27T12:42:41.930Z,2.00
2019-03-27T12:43:42.026Z,1.60
2019-03-27T12:44:42.119Z,2.10
2019-03-27T12:45:42.217Z,2.00
2019-03-27T12:46:42.306Z,2.10
2019-03-27T12:47:42.406Z,1.90
2019-03-27T12:48:42.497Z,1.70
2019-03-27T12:49:42.599Z,2.00
2019-03-27T12:50:44.376Z,1.90
2019-03-27T12:51:42.825Z,1.70
2019-03-27T12:52:42.922Z,1.70
2019-03-27T12:53:43.004Z,1.80
2019-03-27T12:54:43.099Z,1.70
2019-03-27T12:55:43.194Z,1.70
2019-03-27T12:56:43.288Z,1.70
2019-03-27T12:57:43.400Z,2.10
2019-03-27T12:58:43.457Z,1.80
2019-03-27T12:59:43.575Z,1.90
2019-03-27T13:00:43.638Z,2.10
2019-03-27T13:01:43.732Z,1.80
2019-03-27T13:02:43.827Z,1.80
2019-03-27T13:03:44.588Z,2.00
2019-03-27T13:04:44.016Z,1.60
2019-03-27T13:05:44.111Z,1.70
2019-03-27T13:06:44.206Z,1.90
2019-03-27T13:07:50.003Z,1.90
2019-03-27T13:08:44.396Z,1.70
2019-03-27T13:09:44.491Z,1.70
2019-03-27T13:10:44.584Z,1.90
2019-03-27T13:11:44.701Z,2.10
2019-03-27T13:12:44.809Z,1.70
2019-03-27T13:13:44.846Z,2.30
2019-03-27T13:14:44.946Z,2.10
2019-03-27T13:15:45.097Z,1.80
2019-03-27T13:16:45.188Z,2.20
2019-03-27T13:17:45.284Z,2.40